DAL100 KLEX-KATL
Flight info
| Callsign | DAL100 |
|---|---|
| Flight time | 0h 58m |
| Altitude | 35000 |
| Route | HYK KTRYN ONDRE1 |
| Aircraft | R722/M-SDFGRWY/S |
Departure
| Time | 2026-04-16 14:09 |
|---|---|
| Airport | Blue Grass Airport (KLEX) |
Arrival
| Time | 2026-04-16 15:08 |
|---|---|
| Airport | Hartsfield Jackson Atlanta International Airport (KATL) |
| Time | Latitude | Longitude | Altitude | Speed | Heading |
|---|---|---|---|---|---|
| 2026-04-16 13:40 | 38.03762 | -84.60020 | 1059 ft | 0 kts | 91° |
| 2026-04-16 13:55 | 38.03762 | -84.60031 | 1059 ft | 2 kts | 91° |
| 2026-04-16 13:55 | 38.03761 | -84.60046 | 1059 ft | 2 kts | 75° |
| 2026-04-16 13:56 | 38.03756 | -84.60059 | 1059 ft | 2 kts | 44° |
| 2026-04-16 13:56 | 38.03745 | -84.60065 | 1061 ft | 2 kts | 10° |
| 2026-04-16 13:56 | 38.03741 | -84.60065 | 1060 ft | 0 kts | 6° |
| 2026-04-16 14:05 | 38.03747 | -84.60065 | 1059 ft | 3 kts | 359° |
| 2026-04-16 14:05 | 38.03780 | -84.60069 | 1059 ft | 7 kts | 354° |
| 2026-04-16 14:05 | 38.03834 | -84.60050 | 1059 ft | 9 kts | 34° |
| 2026-04-16 14:05 | 38.03887 | -84.60001 | 1060 ft | 7 kts | 17° |
| 2026-04-16 14:06 | 38.03937 | -84.60002 | 1059 ft | 8 kts | 19° |
| 2026-04-16 14:06 | 38.03993 | -84.59953 | 1059 ft | 11 kts | 39° |
| 2026-04-16 14:06 | 38.04042 | -84.59899 | 1059 ft | 9 kts | 41° |
| 2026-04-16 14:06 | 38.04088 | -84.59848 | 1061 ft | 7 kts | 41° |
| 2026-04-16 14:07 | 38.04128 | -84.59826 | 1059 ft | 1 kts | 351° |
| 2026-04-16 14:08 | 38.04139 | -84.59830 | 1059 ft | 3 kts | 333° |
| 2026-04-16 14:08 | 38.04164 | -84.59855 | 1059 ft | 5 kts | 317° |
| 2026-04-16 14:08 | 38.04189 | -84.59887 | 1059 ft | 4 kts | 306° |
| 2026-04-16 14:08 | 38.04187 | -84.59914 | 1059 ft | 4 kts | 240° |
| 2026-04-16 14:09 | 38.04160 | -84.59952 | 1059 ft | 14 kts | 223° |
| 2026-04-16 14:09 | 38.03862 | -84.60286 | 1062 ft | 105 kts | 221° |
| 2026-04-16 14:09 | 38.03134 | -84.61095 | 1350 ft | 161 kts | 221° |
| 2026-04-16 14:09 | 38.02237 | -84.62085 | 2136 ft | 174 kts | 221° |
| 2026-04-16 14:10 | 38.01292 | -84.63102 | 2880 ft | 188 kts | 220° |
| 2026-04-16 14:10 | 37.99970 | -84.63761 | 3615 ft | 227 kts | 193° |
| 2026-04-16 14:10 | 37.98280 | -84.63477 | 4510 ft | 266 kts | 163° |
| 2026-04-16 14:10 | 37.96773 | -84.62003 | 5316 ft | 285 kts | 134° |
| 2026-04-16 14:11 | 37.95789 | -84.59752 | 5843 ft | 296 kts | 117° |
| 2026-04-16 14:11 | 37.95010 | -84.57342 | 6377 ft | 296 kts | 115° |
| 2026-04-16 14:11 | 37.94274 | -84.54921 | 7260 ft | 294 kts | 114° |
| 2026-04-16 14:11 | 37.93559 | -84.52458 | 8360 ft | 300 kts | 114° |
| 2026-04-16 14:12 | 37.92840 | -84.49948 | 9498 ft | 306 kts | 113° |
| 2026-04-16 14:12 | 37.92128 | -84.47419 | 10579 ft | 311 kts | 113° |
| 2026-04-16 14:12 | 37.91418 | -84.44815 | 11656 ft | 314 kts | 113° |
| 2026-04-16 14:12 | 37.90731 | -84.42176 | 12761 ft | 316 kts | 114° |
| 2026-04-16 14:13 | 37.90000 | -84.39560 | 13892 ft | 312 kts | 122° |
| 2026-04-16 14:13 | 37.88893 | -84.37271 | 14928 ft | 299 kts | 139° |
| 2026-04-16 14:13 | 37.87464 | -84.35408 | 15998 ft | 292 kts | 144° |
| 2026-04-16 14:13 | 37.86065 | -84.33549 | 17099 ft | 291 kts | 139° |
| 2026-04-16 14:14 | 37.84811 | -84.31540 | 18213 ft | 289 kts | 135° |
| 2026-04-16 14:14 | 37.83623 | -84.29535 | 19204 ft | 280 kts | 137° |
| 2026-04-16 14:14 | 37.82432 | -84.27658 | 20179 ft | 268 kts | 140° |
| 2026-04-16 14:14 | 37.81296 | -84.25889 | 21118 ft | 259 kts | 140° |
| 2026-04-16 14:15 | 37.80131 | -84.24078 | 21531 ft | 275 kts | 140° |
| 2026-04-16 14:15 | 37.78884 | -84.22129 | 21820 ft | 295 kts | 138° |
| 2026-04-16 14:15 | 37.77569 | -84.20039 | 22156 ft | 313 kts | 138° |
| 2026-04-16 14:15 | 37.76172 | -84.17831 | 22481 ft | 331 kts | 137° |
| 2026-04-16 14:16 | 37.74684 | -84.15491 | 22773 ft | 350 kts | 137° |
| 2026-04-16 14:16 | 37.73121 | -84.13030 | 23114 ft | 367 kts | 137° |
| 2026-04-16 14:16 | 37.71509 | -84.10479 | 23488 ft | 374 kts | 137° |
| 2026-04-16 14:16 | 37.69883 | -84.07910 | 23799 ft | 376 kts | 137° |
| 2026-04-16 14:17 | 37.68235 | -84.05329 | 24076 ft | 377 kts | 137° |
| 2026-04-16 14:17 | 37.66587 | -84.02746 | 24343 ft | 379 kts | 137° |
| 2026-04-16 14:17 | 37.64934 | -84.00151 | 24618 ft | 380 kts | 137° |
| 2026-04-16 14:17 | 37.63278 | -83.97551 | 25062 ft | 381 kts | 137° |
| 2026-04-16 14:18 | 37.61605 | -83.94937 | 25531 ft | 384 kts | 137° |
| 2026-04-16 14:18 | 37.59941 | -83.92338 | 26000 ft | 386 kts | 137° |
| 2026-04-16 14:18 | 37.58242 | -83.89677 | 26468 ft | 390 kts | 137° |
| 2026-04-16 14:18 | 37.56533 | -83.87006 | 26963 ft | 393 kts | 137° |
| 2026-04-16 14:19 | 37.54809 | -83.84318 | 27451 ft | 396 kts | 137° |
| 2026-04-16 14:19 | 37.53067 | -83.81603 | 27965 ft | 399 kts | 137° |
| 2026-04-16 14:19 | 37.51316 | -83.78873 | 28485 ft | 403 kts | 138° |
| 2026-04-16 14:19 | 37.49546 | -83.76114 | 29014 ft | 406 kts | 138° |
| 2026-04-16 14:20 | 37.47758 | -83.73336 | 29560 ft | 410 kts | 138° |
| 2026-04-16 14:20 | 37.45957 | -83.70538 | 30108 ft | 413 kts | 138° |
| 2026-04-16 14:20 | 37.44139 | -83.67714 | 30597 ft | 416 kts | 138° |
| 2026-04-16 14:20 | 37.42311 | -83.64872 | 31052 ft | 419 kts | 138° |
| 2026-04-16 14:21 | 37.38600 | -83.59127 | 31080 ft | 432 kts | 138° |
| 2026-04-16 14:21 | 37.36658 | -83.56138 | 31114 ft | 450 kts | 138° |
| 2026-04-16 14:21 | 37.34661 | -83.53049 | 31156 ft | 455 kts | 137° |
| 2026-04-16 14:22 | 37.30673 | -83.46856 | 31089 ft | 454 kts | 137° |
| 2026-04-16 14:22 | 37.26671 | -83.40711 | 31102 ft | 454 kts | 137° |
| 2026-04-16 14:23 | 37.22670 | -83.34545 | 31081 ft | 455 kts | 137° |
| 2026-04-16 14:23 | 37.18679 | -83.28424 | 31085 ft | 462 kts | 137° |
| 2026-04-16 14:24 | 37.16599 | -83.25255 | 31094 ft | 478 kts | 137° |
| 2026-04-16 14:24 | 37.14495 | -83.22020 | 31099 ft | 478 kts | 136° |
| 2026-04-16 14:24 | 37.11004 | -83.16651 | 31104 ft | 477 kts | 137° |
| 2026-04-16 14:25 | 37.06777 | -83.10228 | 31093 ft | 478 kts | 136° |
| 2026-04-16 14:25 | 37.02568 | -83.03788 | 31068 ft | 477 kts | 137° |
| 2026-04-16 14:26 | 36.98338 | -82.97376 | 31113 ft | 478 kts | 137° |
| 2026-04-16 14:26 | 36.96047 | -82.94434 | 31108 ft | 467 kts | 148° |
| 2026-04-16 14:26 | 36.93419 | -82.92144 | 31111 ft | 455 kts | 159° |
| 2026-04-16 14:27 | 36.90576 | -82.90519 | 31138 ft | 444 kts | 168° |
| 2026-04-16 14:27 | 36.87616 | -82.89565 | 31138 ft | 434 kts | 178° |
| 2026-04-16 14:27 | 36.81718 | -82.89486 | 31125 ft | 420 kts | 192° |
| 2026-04-16 14:28 | 36.75963 | -82.90526 | 31112 ft | 419 kts | 194° |
| 2026-04-16 14:28 | 36.70154 | -82.91383 | 31116 ft | 420 kts | 193° |
| 2026-04-16 14:29 | 36.64361 | -82.92321 | 31117 ft | 420 kts | 194° |
| 2026-04-16 14:29 | 36.58560 | -82.93219 | 31119 ft | 420 kts | 193° |
| 2026-04-16 14:30 | 36.52807 | -82.94126 | 31111 ft | 419 kts | 193° |
| 2026-04-16 14:30 | 36.46989 | -82.95036 | 31133 ft | 421 kts | 193° |
| 2026-04-16 14:31 | 36.41183 | -82.95942 | 31145 ft | 420 kts | 193° |
| 2026-04-16 14:31 | 36.35369 | -82.96852 | 31156 ft | 420 kts | 193° |
| 2026-04-16 14:32 | 36.29563 | -82.97755 | 31166 ft | 421 kts | 193° |
| 2026-04-16 14:32 | 36.23749 | -82.98679 | 31169 ft | 421 kts | 194° |
| 2026-04-16 14:33 | 36.17962 | -82.99623 | 31167 ft | 421 kts | 193° |
| 2026-04-16 14:33 | 36.12148 | -83.00556 | 31163 ft | 421 kts | 194° |
| 2026-04-16 14:34 | 36.06332 | -83.01496 | 31155 ft | 421 kts | 193° |
| 2026-04-16 14:34 | 36.00509 | -83.02430 | 31152 ft | 422 kts | 193° |
| 2026-04-16 14:35 | 35.94679 | -83.03366 | 31141 ft | 422 kts | 193° |
| 2026-04-16 14:35 | 35.88851 | -83.04301 | 31130 ft | 423 kts | 193° |
| 2026-04-16 14:36 | 35.83016 | -83.05233 | 31140 ft | 422 kts | 194° |
| 2026-04-16 14:36 | 35.77253 | -83.06413 | 31133 ft | 414 kts | 204° |
| 2026-04-16 14:37 | 35.72050 | -83.09202 | 31158 ft | 407 kts | 212° |
| 2026-04-16 14:37 | 35.66951 | -83.12305 | 31156 ft | 410 kts | 209° |
| 2026-04-16 14:38 | 35.61772 | -83.15229 | 31160 ft | 408 kts | 210° |
| 2026-04-16 14:38 | 35.56665 | -83.18236 | 31164 ft | 406 kts | 210° |
| 2026-04-16 14:39 | 35.51512 | -83.21194 | 31135 ft | 409 kts | 210° |
| 2026-04-16 14:39 | 35.46402 | -83.24157 | 31165 ft | 409 kts | 210° |
| 2026-04-16 14:40 | 35.41268 | -83.27106 | 31161 ft | 409 kts | 210° |
| 2026-04-16 14:40 | 35.36100 | -83.30011 | 31166 ft | 408 kts | 209° |
| 2026-04-16 14:41 | 35.30942 | -83.32938 | 31158 ft | 407 kts | 209° |
| 2026-04-16 14:41 | 35.25760 | -83.35858 | 31168 ft | 410 kts | 209° |
| 2026-04-16 14:42 | 35.20591 | -83.38773 | 31167 ft | 410 kts | 209° |
| 2026-04-16 14:42 | 35.15397 | -83.41695 | 31163 ft | 410 kts | 209° |
| 2026-04-16 14:43 | 35.10249 | -83.44589 | 31164 ft | 410 kts | 209° |
| 2026-04-16 14:43 | 35.05072 | -83.47509 | 31163 ft | 411 kts | 210° |
| 2026-04-16 14:44 | 35.02481 | -83.49014 | 30803 ft | 409 kts | 210° |
| 2026-04-16 14:44 | 34.99981 | -83.50461 | 30261 ft | 388 kts | 210° |
| 2026-04-16 14:44 | 34.97567 | -83.51849 | 29697 ft | 379 kts | 210° |
| 2026-04-16 14:44 | 34.95187 | -83.53217 | 29198 ft | 377 kts | 210° |
| 2026-04-16 14:45 | 34.92827 | -83.54578 | 28714 ft | 373 kts | 210° |
| 2026-04-16 14:45 | 34.90483 | -83.55928 | 28217 ft | 372 kts | 210° |
| 2026-04-16 14:45 | 34.88139 | -83.57271 | 27737 ft | 371 kts | 210° |
| 2026-04-16 14:45 | 34.85812 | -83.58606 | 27250 ft | 369 kts | 209° |
| 2026-04-16 14:46 | 34.83491 | -83.59938 | 26761 ft | 367 kts | 209° |
| 2026-04-16 14:46 | 34.81189 | -83.61260 | 26280 ft | 367 kts | 209° |
| 2026-04-16 14:46 | 34.78876 | -83.62584 | 25810 ft | 367 kts | 209° |
| 2026-04-16 14:46 | 34.76596 | -83.63888 | 25331 ft | 365 kts | 208° |
| 2026-04-16 14:47 | 34.74297 | -83.65203 | 24854 ft | 364 kts | 208° |
| 2026-04-16 14:47 | 34.72009 | -83.66513 | 24381 ft | 363 kts | 208° |
| 2026-04-16 14:47 | 34.69724 | -83.67819 | 23905 ft | 362 kts | 208° |
| 2026-04-16 14:47 | 34.67443 | -83.69121 | 23376 ft | 360 kts | 208° |
| 2026-04-16 14:48 | 34.65186 | -83.70408 | 22900 ft | 357 kts | 208° |
| 2026-04-16 14:48 | 34.62954 | -83.71681 | 22437 ft | 349 kts | 208° |
| 2026-04-16 14:48 | 34.60797 | -83.72911 | 21969 ft | 340 kts | 208° |
| 2026-04-16 14:48 | 34.58670 | -83.74133 | 21530 ft | 336 kts | 208° |
| 2026-04-16 14:49 | 34.56563 | -83.75340 | 21092 ft | 334 kts | 208° |
| 2026-04-16 14:49 | 34.54491 | -83.76521 | 20651 ft | 332 kts | 208° |
| 2026-04-16 14:49 | 34.52407 | -83.77709 | 20225 ft | 329 kts | 208° |
| 2026-04-16 14:49 | 34.50338 | -83.78891 | 19796 ft | 327 kts | 207° |
| 2026-04-16 14:50 | 34.48288 | -83.80060 | 19362 ft | 325 kts | 207° |
| 2026-04-16 14:50 | 34.46245 | -83.81224 | 18925 ft | 322 kts | 207° |
| 2026-04-16 14:50 | 34.44225 | -83.82374 | 18534 ft | 320 kts | 207° |
| 2026-04-16 14:50 | 34.42221 | -83.83515 | 18084 ft | 317 kts | 207° |
| 2026-04-16 14:51 | 34.40250 | -83.84635 | 17658 ft | 315 kts | 207° |
| 2026-04-16 14:51 | 34.38244 | -83.85778 | 17239 ft | 314 kts | 207° |
| 2026-04-16 14:51 | 34.36291 | -83.86887 | 16673 ft | 313 kts | 207° |
| 2026-04-16 14:51 | 34.34329 | -83.88003 | 16223 ft | 311 kts | 207° |
| 2026-04-16 14:53 | 34.21579 | -83.95985 | 13447 ft | 284 kts | 210° |
| 2026-04-16 14:53 | 34.19829 | -83.97091 | 13079 ft | 283 kts | 210° |
| 2026-04-16 14:54 | 34.18089 | -83.98191 | 12792 ft | 281 kts | 210° |
| 2026-04-16 14:54 | 34.16361 | -83.99282 | 12528 ft | 280 kts | 210° |
| 2026-04-16 14:54 | 34.14638 | -84.00369 | 12267 ft | 279 kts | 210° |
| 2026-04-16 14:54 | 34.12922 | -84.01454 | 12011 ft | 278 kts | 210° |
| 2026-04-16 14:55 | 34.11204 | -84.02536 | 11759 ft | 278 kts | 209° |
| 2026-04-16 14:55 | 34.09499 | -84.03612 | 11508 ft | 277 kts | 209° |
| 2026-04-16 14:55 | 34.07844 | -84.04655 | 11261 ft | 276 kts | 209° |
| 2026-04-16 14:55 | 34.06145 | -84.05724 | 11009 ft | 276 kts | 209° |
| 2026-04-16 14:56 | 34.04459 | -84.06787 | 10758 ft | 275 kts | 209° |
| 2026-04-16 14:56 | 34.02763 | -84.07853 | 10505 ft | 275 kts | 209° |
| 2026-04-16 14:56 | 34.01049 | -84.08876 | 10245 ft | 274 kts | 202° |
| 2026-04-16 14:56 | 33.99170 | -84.09295 | 9992 ft | 278 kts | 183° |
| 2026-04-16 14:57 | 33.97238 | -84.09115 | 9736 ft | 279 kts | 174° |
| 2026-04-16 14:57 | 33.95332 | -84.08650 | 9475 ft | 279 kts | 171° |
| 2026-04-16 14:57 | 33.93434 | -84.08176 | 9222 ft | 278 kts | 173° |
| 2026-04-16 14:57 | 33.91533 | -84.07783 | 8995 ft | 276 kts | 173° |
| 2026-04-16 14:58 | 33.89646 | -84.07347 | 8826 ft | 275 kts | 171° |
| 2026-04-16 14:58 | 33.86061 | -84.06409 | 8548 ft | 244 kts | 172° |
| 2026-04-16 14:58 | 33.84406 | -84.06004 | 8426 ft | 242 kts | 172° |
| 2026-04-16 14:59 | 33.82747 | -84.05614 | 8301 ft | 242 kts | 174° |
| 2026-04-16 14:59 | 33.81079 | -84.05330 | 8175 ft | 243 kts | 175° |
| 2026-04-16 14:59 | 33.79464 | -84.05060 | 8057 ft | 222 kts | 175° |
| 2026-04-16 14:59 | 33.77951 | -84.04795 | 7954 ft | 219 kts | 175° |
| 2026-04-16 15:00 | 33.76450 | -84.04535 | 7866 ft | 219 kts | 175° |
| 2026-04-16 15:00 | 33.74931 | -84.04273 | 7754 ft | 219 kts | 175° |
| 2026-04-16 15:00 | 33.73440 | -84.04202 | 7525 ft | 215 kts | 195° |
| 2026-04-16 15:00 | 33.72113 | -84.04948 | 7517 ft | 210 kts | 209° |
| 2026-04-16 15:01 | 33.70939 | -84.06011 | 7152 ft | 212 kts | 230° |
| 2026-04-16 15:01 | 33.70008 | -84.07357 | 6824 ft | 209 kts | 229° |
| 2026-04-16 15:01 | 33.68982 | -84.08589 | 6516 ft | 208 kts | 223° |
| 2026-04-16 15:01 | 33.67903 | -84.09748 | 6205 ft | 207 kts | 223° |
| 2026-04-16 15:02 | 33.66845 | -84.10917 | 5932 ft | 204 kts | 224° |
| 2026-04-16 15:02 | 33.65829 | -84.12030 | 5653 ft | 194 kts | 225° |
| 2026-04-16 15:02 | 33.65104 | -84.13347 | 5394 ft | 193 kts | 251° |
| 2026-04-16 15:02 | 33.64895 | -84.14941 | 5144 ft | 194 kts | 267° |
| 2026-04-16 15:03 | 33.64923 | -84.16534 | 4902 ft | 189 kts | 270° |
| 2026-04-16 15:03 | 33.64936 | -84.18103 | 4643 ft | 187 kts | 268° |
| 2026-04-16 15:03 | 33.64933 | -84.19668 | 4420 ft | 189 kts | 269° |
| 2026-04-16 15:03 | 33.64941 | -84.21243 | 4170 ft | 187 kts | 269° |
| 2026-04-16 15:04 | 33.64957 | -84.22800 | 3905 ft | 185 kts | 270° |
| 2026-04-16 15:04 | 33.64954 | -84.24343 | 3659 ft | 183 kts | 269° |
| 2026-04-16 15:04 | 33.64958 | -84.25820 | 3425 ft | 165 kts | 271° |
| 2026-04-16 15:04 | 33.64953 | -84.27190 | 3192 ft | 164 kts | 268° |
| 2026-04-16 15:05 | 33.64953 | -84.28541 | 3012 ft | 157 kts | 271° |
| 2026-04-16 15:05 | 33.64964 | -84.29881 | 2807 ft | 160 kts | 269° |
| 2026-04-16 15:05 | 33.64949 | -84.31237 | 2587 ft | 163 kts | 270° |
| 2026-04-16 15:05 | 33.64961 | -84.32585 | 2381 ft | 162 kts | 270° |
| 2026-04-16 15:06 | 33.64952 | -84.33917 | 2173 ft | 153 kts | 270° |
| 2026-04-16 15:06 | 33.64961 | -84.35118 | 1979 ft | 140 kts | 272° |
| 2026-04-16 15:06 | 33.64966 | -84.36255 | 1814 ft | 134 kts | 268° |
| 2026-04-16 15:06 | 33.64945 | -84.37371 | 1705 ft | 135 kts | 271° |
| 2026-04-16 15:07 | 33.64948 | -84.38494 | 1512 ft | 136 kts | 271° |
| 2026-04-16 15:07 | 33.64950 | -84.39645 | 1339 ft | 138 kts | 272° |
| 2026-04-16 15:07 | 33.64952 | -84.40761 | 1104 ft | 133 kts | 271° |
| 2026-04-16 15:07 | 33.64955 | -84.41785 | 1010 ft | 103 kts | 270° |
| 2026-04-16 15:08 | 33.64955 | -84.42347 | 1010 ft | 34 kts | 270° |
| 2026-04-16 15:08 | 33.64941 | -84.42606 | 1010 ft | 27 kts | 258° |
| 2026-04-16 15:08 | 33.64884 | -84.42775 | 1010 ft | 17 kts | 234° |
| 2026-04-16 15:08 | 33.64802 | -84.42771 | 1010 ft | 13 kts | 122° |
| 2026-04-16 15:09 | 33.64789 | -84.42663 | 1009 ft | 6 kts | 90° |
| 2026-04-16 15:09 | 33.64789 | -84.42598 | 1009 ft | 9 kts | 90° |
| 2026-04-16 15:09 | 33.64789 | -84.42505 | 1009 ft | 13 kts | 90° |
| 2026-04-16 15:09 | 33.64789 | -84.42403 | 1009 ft | 10 kts | 96° |
| 2026-04-16 15:10 | 33.64759 | -84.42345 | 1009 ft | 10 kts | 158° |
| 2026-04-16 15:10 | 33.64679 | -84.42337 | 1008 ft | 13 kts | 179° |
| 2026-04-16 15:10 | 33.64587 | -84.42336 | 1009 ft | 12 kts | 182° |
| 2026-04-16 15:10 | 33.64543 | -84.42397 | 1009 ft | 11 kts | 266° |
| 2026-04-16 15:11 | 33.64543 | -84.42500 | 1009 ft | 14 kts | 270° |
| 2026-04-16 15:11 | 33.64543 | -84.42622 | 1009 ft | 15 kts | 269° |
| 2026-04-16 15:11 | 33.64542 | -84.42721 | 1010 ft | 12 kts | 269° |
| 2026-04-16 15:11 | 33.64542 | -84.42798 | 1010 ft | 15 kts | 270° |
| 2026-04-16 15:12 | 33.64541 | -84.42932 | 1010 ft | 17 kts | 270° |
| 2026-04-16 15:12 | 33.64512 | -84.43089 | 1010 ft | 15 kts | 206° |
| 2026-04-16 15:12 | 33.64442 | -84.43096 | 1010 ft | 16 kts | 180° |
| 2026-04-16 15:12 | 33.64321 | -84.43081 | 1010 ft | 19 kts | 168° |
| 2026-04-16 15:13 | 33.64183 | -84.43064 | 1010 ft | 21 kts | 180° |
| 2026-04-16 15:13 | 33.64075 | -84.43053 | 1010 ft | 10 kts | 142° |
| 2026-04-16 15:13 | 33.64064 | -84.43026 | 1010 ft | 3 kts | 114° |
| 2026-04-16 15:13 | 33.64055 | -84.43002 | 1010 ft | 0 kts | 114° |
| 2026-04-16 15:14 | 33.64053 | -84.42996 | 1010 ft | 0 kts | 114° |